Time;durP1;ratioP1;P1;durP2;ratioP2;P2;SDS_P1;SDS_P2;PMS_P1;PMS_P2;Temp;Humidity;BMP_temperature;BMP_pressure;BME280_temperature;BME280_humidity;BME280_pressure;Samples;Min_cycle;Max_cycle;Signal;HPM_P1;HPM_P2
2022/04/13 00:01:13;;;;;;;7.33;6.73;;;;;;;7.97;61.31;99906.13;5090605;28;20209;-58
2022/04/13 00:03:42;;;;;;;9.03;7.53;;;;;;;7.89;62.38;99901.59;5090830;28;20218;-58
2022/04/13 00:06:09;;;;;;;8.13;7.33;;;;;;;7.97;62.49;99892.47;5090519;28;20277;-58
2022/04/13 00:08:36;;;;;;;9.13;8.20;;;;;;;8.03;62.45;99898.66;5074933;28;20278;-58
2022/04/13 00:11:03;;;;;;;11.60;9.23;;;;;;;8.06;62.24;99883.41;5070001;28;20278;-58
2022/04/13 00:13:30;;;;;;;8.47;7.67;;;;;;;8.12;62.16;99893.84;5070130;28;20238;-57
2022/04/13 00:15:57;;;;;;;9.40;8.37;;;;;;;8.18;61.64;99894.06;5075402;28;20566;-58
2022/04/13 00:18:24;;;;;;;8.33;7.17;;;;;;;8.26;60.97;99890.06;5090112;28;20203;-58
2022/04/13 00:20:52;;;;;;;7.87;6.73;;;;;;;8.32;60.56;99890.25;5090434;28;20301;-58
2022/04/13 00:23:19;;;;;;;7.70;7.00;;;;;;;8.32;59.51;99885.97;5090056;28;20299;-58
2022/04/13 00:25:47;;;;;;;7.00;6.30;;;;;;;8.24;59.13;99888.25;5090390;28;20282;-58
2022/04/13 00:28:14;;;;;;;6.60;5.90;;;;;;;8.28;59.31;99893.56;5089843;28;20198;-58
2022/04/13 00:30:42;;;;;;;7.30;6.53;;;;;;;8.34;59.84;99886.88;5090038;28;20288;-58
2022/04/13 00:33:09;;;;;;;7.53;6.70;;;;;;;8.29;59.21;99885.03;5090187;28;20619;-58
2022/04/13 00:35:37;;;;;;;7.90;7.13;;;;;;;8.32;59.62;99890.25;5090004;28;20195;-58
2022/04/13 00:38:05;;;;;;;6.97;6.20;;;;;;;8.29;58.96;99881.63;5090083;28;20195;-58
2022/04/13 00:40:32;;;;;;;7.80;6.30;;;;;;;8.37;59.22;99882.72;5090409;28;20203;-58
2022/04/13 00:42:59;;;;;;;8.90;7.30;;;;;;;8.21;58.99;99863.41;5089936;28;20311;-58
2022/04/13 00:45:26;;;;;;;8.07;6.23;;;;;;;8.37;58.79;99874.19;5089978;28;20204;-58
2022/04/13 00:47:53;;;;;;;9.57;6.77;;;;;;;8.44;58.71;99882.09;5089878;28;20187;-58
2022/04/13 00:50:23;;;;;;;7.47;6.67;;;;;;;8.50;58.65;99876.28;5089943;28;20186;-58
2022/04/13 00:52:52;;;;;;;6.73;5.93;;;;;;;8.55;58.28;99877.28;5090100;28;20630;-58
2022/04/13 00:55:21;;;;;;;8.70;6.13;;;;;;;8.59;58.83;99877.44;5090059;28;20194;-58
2022/04/13 00:57:50;;;;;;;6.97;6.27;;;;;;;8.61;58.75;99880.91;5089749;28;20194;-58
2022/04/13 01:00:19;;;;;;;9.73;6.83;;;;;;;8.62;58.55;99882.66;5089889;28;20286;-58
2022/04/13 01:02:47;;;;;;;6.80;6.10;;;;;;;8.59;58.67;99876.56;5089792;28;20272;-58
2022/04/13 01:05:14;;;;;;;7.43;6.00;;;;;;;8.57;59.13;99879.06;5089792;28;20191;-58
2022/04/13 01:07:42;;;;;;;6.47;5.90;;;;;;;8.61;59.20;99877.47;5089940;28;20191;-58
2022/04/13 01:10:10;;;;;;;7.73;6.80;;;;;;;8.65;59.45;99877.59;5089818;28;20247;-58
2022/04/13 01:12:38;;;;;;;7.90;7.10;;;;;;;8.62;58.91;99874.09;5071976;28;20207;-58
2022/04/13 01:15:06;;;;;;;7.90;7.07;;;;;;;8.67;58.99;99880.22;5069590;28;20657;-58
2022/04/13 01:17:34;;;;;;;7.97;7.10;;;;;;;8.66;59.01;99870.78;5069360;28;20277;-58
2022/04/13 01:20:05;;;;;;;10.00;7.43;;;;;;;8.70;59.13;99873.50;5069681;28;20195;-58
2022/04/13 01:22:33;;;;;;;9.43;7.30;;;;;;;8.70;58.81;99868.38;5069449;28;20696;-58
2022/04/13 01:25:00;;;;;;;8.50;7.70;;;;;;;8.67;59.29;99870.84;5069509;28;20308;-58
2022/04/13 01:27:27;;;;;;;9.57;8.10;;;;;;;8.68;58.96;99872.56;5069469;28;20210;-58
2022/04/13 01:29:54;;;;;;;9.13;8.20;;;;;;;8.66;59.34;99869.09;5069439;28;20205;-58
2022/04/13 01:32:21;;;;;;;9.83;8.77;;;;;;;8.27;59.07;99801.34;5069387;28;20633;-58
2022/04/13 01:34:49;;;;;;;11.23;8.87;;;;;;;8.71;59.45;99872.66;5068668;28;20517;-58
2022/04/13 01:37:17;;;;;;;10.47;8.90;;;;;;;8.76;59.02;99870.25;5069360;28;20429;-58
2022/04/13 01:39:46;;;;;;;11.10;8.50;;;;;;;8.58;59.16;99844.97;5069605;28;20191;-58
2022/04/13 01:42:13;;;;;;;9.60;8.63;;;;;;;8.73;59.45;99868.47;5072445;28;20188;-58
2022/04/13 01:44:41;;;;;;;12.60;10.10;;;;;;;8.68;59.52;99876.84;5073215;28;20289;-58
2022/04/13 01:47:09;;;;;;;11.87;9.73;;;;;;;8.60;60.32;99870.59;5072799;28;20205;-58
2022/04/13 01:49:36;;;;;;;12.52;11.23;;;;;;;8.58;60.40;99869.69;5072438;28;20437;-58
2022/04/13 01:52:04;;;;;;;11.40;10.07;;;;;;;8.58;60.25;99865.44;5072904;28;20265;-58
2022/04/13 01:54:31;;;;;;;11.93;10.63;;;;;;;8.42;61.11;99864.94;5072752;28;20207;-58
2022/04/13 01:56:59;;;;;;;11.90;9.57;;;;;;;8.32;61.67;99855.25;5072564;28;20275;-58
2022/04/13 01:59:26;;;;;;;15.53;9.93;;;;;;;8.40;61.85;99870.03;5072746;28;20191;-58
2022/04/13 02:01:53;;;;;;;11.77;9.70;;;;;;;8.35;61.96;99865.59;5072537;28;20188;-58
2022/04/13 02:04:21;;;;;;;11.33;10.07;;;;;;;8.24;62.08;99868.63;5072438;28;20230;-58
2022/04/13 02:06:49;;;;;;;12.80;9.87;;;;;;;8.16;62.37;99875.19;5072466;28;20279;-58
2022/04/13 02:09:17;;;;;;;11.17;9.60;;;;;;;8.07;62.83;99862.13;5072343;28;20191;-58
2022/04/13 02:11:44;;;;;;;11.00;9.83;;;;;;;8.01;63.25;99874.72;5072251;28;20202;-58
2022/04/13 02:14:13;;;;;;;11.57;10.20;;;;;;;7.97;63.41;99872.88;5072247;28;20601;-58
2022/04/13 02:16:40;;;;;;;12.93;10.17;;;;;;;7.97;63.68;99877.13;5072407;28;20198;-58
2022/04/13 02:19:07;;;;;;;11.63;9.63;;;;;;;7.92;64.11;99876.97;5072387;28;20195;-58
2022/04/13 02:21:34;;;;;;;14.60;9.90;;;;;;;7.83;64.08;99878.38;5072476;28;20999;-58
2022/04/13 02:24:01;;;;;;;12.23;9.40;;;;;;;7.75;64.36;99870.44;5072345;28;20229;-58
2022/04/13 02:26:29;;;;;;;12.33;9.53;;;;;;;7.71;65.08;99878.84;5072505;28;20219;-58
2022/04/13 02:28:56;;;;;;;12.97;10.50;;;;;;;7.64;64.80;99882.88;5072409;28;20222;-58
2022/04/13 02:31:24;;;;;;;13.43;10.40;;;;;;;7.64;65.14;99871.75;5072469;28;20298;-58
2022/04/13 02:33:53;;;;;;;11.17;9.30;;;;;;;7.57;65.85;99878.38;5071943;28;20194;-58
2022/04/13 02:36:20;;;;;;;11.77;10.43;;;;;;;7.54;65.49;99875.72;5071829;28;20683;-57
2022/04/13 02:38:47;;;;;;;23.67;10.20;;;;;;;7.46;66.24;99879.69;5072074;28;20206;-58
2022/04/13 02:41:14;;;;;;;10.73;9.60;;;;;;;7.41;66.82;99876.09;5072009;28;20194;-58
2022/04/13 02:43:41;;;;;;;10.57;9.43;;;;;;;7.39;66.15;99869.22;5071833;28;20220;-58
2022/04/13 02:46:08;;;;;;;10.70;9.70;;;;;;;7.30;66.07;99876.53;5071613;28;20190;-58
2022/04/13 02:48:36;;;;;;;13.30;11.10;;;;;;;7.17;66.30;99841.16;5070742;28;20514;-58
2022/04/13 02:51:03;;;;;;;10.87;9.77;;;;;;;7.36;66.11;99861.44;5071168;28;20270;-58
2022/04/13 02:53:31;;;;;;;11.47;9.90;;;;;;;7.30;65.79;99859.53;5071735;28;20199;-58
2022/04/13 02:55:58;;;;;;;10.63;9.27;;;;;;;7.24;65.92;99863.56;5071465;28;20685;-58
2022/04/13 02:58:25;;;;;;;11.83;9.30;;;;;;;7.20;66.38;99864.28;5071398;28;20202;-58
2022/04/13 03:00:54;;;;;;;13.10;10.00;;;;;;;7.17;66.01;99864.16;5071464;28;20282;-58
2022/04/13 03:03:21;;;;;;;12.40;10.10;;;;;;;7.16;65.86;99865.84;5071263;28;20644;-58
2022/04/13 03:05:49;;;;;;;12.60;10.97;;;;;;;7.12;66.38;99859.75;5071242;28;20255;-60
2022/04/13 03:08:17;;;;;;;13.77;10.47;;;;;;;7.18;66.02;99864.19;5071491;28;20203;-61
2022/04/13 03:10:44;;;;;;;12.70;10.53;;;;;;;7.04;66.44;99853.50;5071374;28;20548;-60
2022/04/13 03:13:12;;;;;;;15.27;11.27;;;;;;;7.16;66.58;99865.84;5070924;28;20310;-60
2022/04/13 03:15:38;;;;;;;13.50;11.10;;;;;;;7.11;66.44;99864.81;5071240;28;20195;-60
2022/04/13 03:18:06;;;;;;;13.10;11.27;;;;;;;7.11;66.65;99863.09;5071013;28;20293;-61
2022/04/13 03:20:34;;;;;;;11.93;10.40;;;;;;;7.10;66.59;99866.50;5071168;28;20259;-60
2022/04/13 03:23:03;;;;;;;15.20;10.60;;;;;;;7.10;66.53;99868.16;5071119;28;20205;-60
2022/04/13 03:25:30;;;;;;;14.63;11.00;;;;;;;7.09;66.32;99868.97;5070925;28;20226;-61
2022/04/13 03:27:57;;;;;;;12.73;9.80;;;;;;;7.09;66.87;99869.84;5071069;28;20196;-61
2022/04/13 03:30:24;;;;;;;12.23;10.93;;;;;;;7.09;67.02;99877.50;5070818;28;20691;-61
2022/04/13 03:32:51;;;;;;;12.43;9.97;;;;;;;7.12;66.26;99875.06;5070630;28;20208;-61
2022/04/13 03:35:19;;;;;;;10.90;9.80;;;;;;;7.12;65.20;99877.63;5070713;28;20194;-61
2022/04/13 03:37:46;;;;;;;13.17;10.10;;;;;;;7.16;65.66;99883.72;5070863;28;20202;-60
2022/04/13 03:40:14;;;;;;;12.87;10.87;;;;;;;7.17;65.42;99897.38;5070839;28;20603;-61
2022/04/13 03:42:43;;;;;;;13.07;11.23;;;;;;;7.16;65.57;99893.94;5070533;28;20264;-60
2022/04/13 03:45:12;;;;;;;11.63;10.23;;;;;;;7.18;65.25;99899.97;5070596;28;20226;-60
2022/04/13 03:47:39;;;;;;;13.63;12.15;;;;;;;7.20;64.92;99900.88;5069715;28;20442;-61
2022/04/13 03:50:06;;;;;;;15.00;11.87;;;;;;;7.29;64.96;99900.34;5070886;28;20195;-60
2022/04/13 03:52:34;;;;;;;15.83;11.53;;;;;;;7.27;65.01;99900.31;5070710;28;20194;-60
2022/04/13 03:55:01;;;;;;;15.93;11.93;;;;;;;7.31;65.17;99903.81;5070529;28;20198;-60
2022/04/13 03:57:29;;;;;;;15.17;12.07;;;;;;;7.27;65.91;99897.75;5070844;28;20213;-60
2022/04/13 03:59:56;;;;;;;15.40;13.10;;;;;;;7.28;65.68;99903.75;5070821;28;20197;-60
2022/04/13 04:02:23;;;;;;;13.20;10.87;;;;;;;7.25;65.30;99919.81;5070405;28;20232;-60
2022/04/13 04:04:50;;;;;;;18.63;12.20;;;;;;;7.24;65.43;99920.66;5069737;28;20697;-60
2022/04/13 04:07:17;;;;;;;14.57;11.53;;;;;;;7.23;65.80;99913.78;5070645;28;20281;-60
2022/04/13 04:09:44;;;;;;;17.33;12.70;;;;;;;7.21;65.91;99912.88;5070418;28;20551;-60
2022/04/13 04:12:11;;;;;;;17.33;13.13;;;;;;;7.26;65.31;99918.13;5070051;28;20202;-60
2022/04/13 04:14:40;;;;;;;19.10;13.37;;;;;;;7.22;65.66;99921.41;5073850;28;20703;-60
2022/04/13 04:17:07;;;;;;;20.37;12.87;;;;;;;7.25;65.85;99919.81;5090618;28;20281;-60
2022/04/13 04:19:34;;;;;;;22.33;14.47;;;;;;;7.23;65.89;99920.56;5090593;28;20194;-60
2022/04/13 04:22:01;;;;;;;16.00;13.83;;;;;;;7.21;66.05;99928.19;5090096;28;20292;-60
2022/04/13 04:24:28;;;;;;;19.43;13.87;;;;;;;7.18;66.12;99933.19;5087943;28;20371;-60
2022/04/13 04:26:55;;;;;;;18.53;13.43;;;;;;;7.17;66.18;99928.03;5089496;28;20197;-60
2022/04/13 04:29:23;;;;;;;19.40;13.73;;;;;;;7.28;66.10;99949.75;5089978;28;20724;-60
2022/04/13 04:31:51;;;;;;;17.65;15.02;;;;;;;7.33;65.48;99950.78;5088982;28;20435;-61
2022/04/13 04:34:20;;;;;;;18.57;13.50;;;;;;;7.35;64.99;99941.47;5090171;28;20225;-62
2022/04/13 04:36:47;;;;;;;17.57;13.20;;;;;;;7.37;65.07;99948.38;5090023;28;20193;-61
2022/04/13 04:39:14;;;;;;;18.20;13.00;;;;;;;7.40;64.94;99951.03;5089815;28;20188;-61
2022/04/13 04:41:41;;;;;;;15.03;13.13;;;;;;;7.39;64.88;99951.84;5090165;28;20743;-61
2022/04/13 04:44:09;;;;;;;17.37;14.53;;;;;;;7.45;65.05;99951.19;5089751;28;20228;-61
2022/04/13 04:46:36;;;;;;;20.75;16.00;;;;;;;7.56;64.51;99955.00;5089585;28;20428;-60
2022/04/13 04:49:05;;;;;;;21.33;15.67;;;;;;;7.56;64.88;99955.00;5090170;28;20293;-61
2022/04/13 04:51:32;;;;;;;23.00;13.77;;;;;;;7.41;64.35;99913.56;5089404;28;20197;-60
2022/04/13 04:53:59;;;;;;;16.50;13.20;;;;;;;7.63;64.03;99962.09;5089900;28;20249;-61
2022/04/13 04:56:26;;;;;;;18.67;13.43;;;;;;;7.43;63.26;99922.16;5081486;28;20580;-61
2022/04/13 04:58:54;;;;;;;17.60;12.80;;;;;;;7.70;62.88;99964.03;5089794;28;20193;-60
2022/04/13 05:01:21;;;;;;;19.37;12.27;;;;;;;7.74;62.67;99965.91;5089737;28;20284;-61
2022/04/13 05:03:49;;;;;;;19.30;13.10;;;;;;;7.68;62.24;99943.53;5089728;28;20683;-61
2022/04/13 05:06:21;;;;;;;16.40;12.53;;;;;;;7.92;62.31;99970.75;5089624;28;20561;-61
2022/04/13 05:08:48;;;;;;;18.53;13.63;;;;;;;7.99;62.41;99972.72;5089758;28;20191;-61
2022/04/13 05:11:15;;;;;;;17.07;12.13;;;;;;;8.04;62.01;99964.38;5089911;28;20186;-61
2022/04/13 05:13:45;;;;;;;15.83;11.60;;;;;;;8.12;61.83;99965.50;5089623;28;20237;-61
2022/04/13 05:16:13;;;;;;;14.23;12.70;;;;;;;8.23;62.14;99965.88;5093241;28;20203;-61
2022/04/13 05:18:40;;;;;;;14.13;11.87;;;;;;;8.28;60.88;99966.91;5092384;28;20225;-61
2022/04/13 05:21:07;;;;;;;17.43;11.20;;;;;;;8.33;60.68;99970.50;5092033;28;20190;-60
2022/04/13 05:23:36;;;;;;;16.33;11.37;;;;;;;8.27;59.81;99971.16;5098578;28;20198;-60
2022/04/13 05:26:03;;;;;;;12.40;10.97;;;;;;;8.32;59.70;99969.59;5103819;28;20206;-61
2022/04/13 05:28:30;;;;;;;10.97;9.47;;;;;;;8.29;59.29;99973.78;5100366;28;20201;-61
2022/04/13 05:30:57;;;;;;;10.03;8.80;;;;;;;8.35;58.60;99979.06;5100385;28;20201;-60
2022/04/13 05:33:24;;;;;;;11.77;9.10;;;;;;;8.45;58.19;99973.47;5100687;28;20196;-61
2022/04/13 05:35:51;;;;;;;10.93;9.53;;;;;;;8.51;57.89;99978.78;5094395;28;20258;-59
2022/04/13 05:38:18;;;;;;;18.90;10.23;;;;;;;8.41;59.18;99971.59;5092640;28;20315;-60
2022/04/13 05:40:47;;;;;;;9.70;8.57;;;;;;;8.56;58.27;99984.91;5092183;28;20183;-60
2022/04/13 05:43:14;;;;;;;12.27;9.23;;;;;;;8.56;58.34;99977.22;5091183;28;20614;-59
2022/04/13 05:45:40;;;;;;;11.07;9.20;;;;;;;8.56;58.18;99982.34;5092154;28;20186;-59
2022/04/13 05:48:08;;;;;;;10.27;8.17;;;;;;;8.69;57.70;99981.91;5091977;28;20203;-59
2022/04/13 05:50:35;;;;;;;10.90;8.20;;;;;;;8.72;57.22;99976.88;5092197;28;20567;-59
2022/04/13 05:53:02;;;;;;;8.83;7.93;;;;;;;8.77;57.12;99977.91;5092134;28;20189;-56
2022/04/13 05:55:29;;;;;;;12.87;8.47;;;;;;;8.92;56.74;99985.19;5091314;28;20509;-57
2022/04/13 05:57:58;;;;;;;13.27;7.30;;;;;;;8.94;56.27;99985.22;5091742;28;20280;-57
2022/04/13 06:00:25;;;;;;;10.23;8.63;;;;;;;9.01;56.22;99992.28;5092332;28;20720;-56
2022/04/13 06:02:52;;;;;;;8.50;7.60;;;;;;;9.09;55.66;99988.25;5092196;28;20204;-57
2022/04/13 06:05:21;;;;;;;12.13;8.17;;;;;;;9.22;56.11;99990.34;5092226;28;20318;-57
2022/04/13 06:07:48;;;;;;;9.23;7.07;;;;;;;9.33;54.82;99988.97;5092502;28;20194;-57
2022/04/13 06:10:17;;;;;;;7.03;6.33;;;;;;;9.34;54.46;99995.81;5092367;28;20194;-57
2022/04/13 06:12:43;;;;;;;6.73;6.13;;;;;;;9.37;54.28;99989.09;5092073;28;20280;-57
2022/04/13 06:15:12;;;;;;;7.27;6.57;;;;;;;9.41;54.69;99997.75;5091866;28;20189;-57
2022/04/13 06:17:40;;;;;;;8.97;7.40;;;;;;;9.48;54.88;99994.53;5092121;28;20265;-57
2022/04/13 06:20:08;;;;;;;11.23;7.70;;;;;;;9.54;54.89;99997.28;5091288;28;20315;-60
2022/04/13 06:22:39;;;;;;;10.57;7.47;;;;;;;9.59;55.49;99997.38;5103348;28;20284;-59
2022/04/13 06:25:06;;;;;;;8.13;7.13;;;;;;;9.66;54.72;99995.06;5097576;28;20312;-60
2022/04/13 06:27:34;;;;;;;8.07;7.27;;;;;;;9.75;54.28;99992.72;5111553;28;20190;-60
2022/04/13 06:30:01;;;;;;;8.70;6.70;;;;;;;9.91;53.60;99999.16;5108340;28;20285;-59
2022/04/13 06:32:37;;;;;;;8.83;6.03;;;;;;;9.92;52.72;100004.31;5090757;28;20194;-61
2022/04/13 06:35:05;;;;;;;9.32;6.97;;;;;;;9.90;52.66;99995.72;5089349;28;20459;-58
2022/04/13 06:37:32;;;;;;;10.73;6.63;;;;;;;9.95;52.14;99980.44;5090982;28;20193;-58
2022/04/13 06:39:59;;;;;;;8.60;7.53;;;;;;;10.20;52.37;99999.94;5091972;28;20733;-57
2022/04/13 06:42:26;;;;;;;9.80;6.53;;;;;;;10.31;51.62;100001.97;5093650;28;20226;-58
2022/04/13 06:44:54;;;;;;;7.17;6.17;;;;;;;10.40;51.36;100004.78;5089928;28;20307;-58
2022/04/13 06:47:21;;;;;;;7.67;6.63;;;;;;;10.46;51.89;100004.06;5091226;28;20282;-57
2022/04/13 06:49:49;;;;;;;10.40;6.37;;;;;;;10.52;51.90;99999.91;5091309;28;20230;-57
2022/04/13 06:52:16;;;;;;;8.57;6.27;;;;;;;10.62;51.17;99998.44;5091393;28;20195;-57
2022/04/13 06:54:43;;;;;;;9.60;6.30;;;;;;;10.73;50.62;99994.44;5091445;28;20284;-57
2022/04/13 06:57:10;;;;;;;7.47;6.77;;;;;;;10.79;50.82;99994.59;5091909;28;20195;-57
2022/04/13 06:59:37;;;;;;;7.03;5.97;;;;;;;10.88;50.67;100007.63;5091617;28;20221;-57
2022/04/13 07:02:06;;;;;;;16.77;6.57;;;;;;;10.95;49.93;100004.38;5091084;28;20293;-57
2022/04/13 07:04:34;;;;;;;6.63;6.03;;;;;;;10.98;49.84;100004.47;5091082;28;20622;-57
2022/04/13 07:07:03;;;;;;;8.68;6.82;;;;;;;11.08;49.87;99997.81;5088434;28;20826;-56
2022/04/13 07:09:30;;;;;;;11.70;6.63;;;;;;;11.19;49.59;99997.22;5090383;28;20198;-57
2022/04/13 07:11:57;;;;;;;8.82;7.10;;;;;;;11.30;49.41;99999.13;5085957;28;20802;-57
2022/04/13 07:14:24;;;;;;;8.10;6.87;;;;;;;11.43;48.87;100001.13;5089363;28;20582;-57
2022/04/13 07:16:51;;;;;;;8.10;5.67;;;;;;;11.50;49.30;100001.31;5089414;28;20286;-57
2022/04/13 07:19:18;;;;;;;8.47;5.80;;;;;;;11.51;48.12;100005.59;5089556;28;20194;-56
2022/04/13 07:21:46;;;;;;;7.03;6.17;;;;;;;11.58;48.56;100002.31;5089723;28;20191;-57
2022/04/13 07:24:14;;;;;;;8.40;5.87;;;;;;;11.65;47.97;99995.56;5090309;28;20278;-57
2022/04/13 07:26:41;;;;;;;7.77;5.80;;;;;;;11.77;47.55;100001.88;5090657;28;20218;-59
2022/04/13 07:29:08;;;;;;;6.87;6.17;;;;;;;11.88;47.11;100007.22;5090725;28;20190;-59
2022/04/13 07:31:35;;;;;;;7.47;6.33;;;;;;;11.88;46.35;100009.81;5090650;28;20187;-59
2022/04/13 07:34:02;;;;;;;6.00;5.40;;;;;;;11.54;45.30;99953.31;5090868;28;20191;-61
2022/04/13 07:36:30;;;;;;;9.97;5.80;;;;;;;11.97;45.07;100006.53;5090539;28;20187;-62
2022/04/13 07:38:56;;;;;;;9.63;5.80;;;;;;;12.09;45.14;100012.78;5090498;28;20616;-61
2022/04/13 07:41:25;;;;;;;6.57;5.87;;;;;;;12.13;44.31;100001.69;5090501;28;20199;-62
2022/04/13 07:43:52;;;;;;;7.60;5.07;;;;;;;12.14;44.36;100000.00;5089895;28;20330;-60
2022/04/13 07:46:19;;;;;;;6.03;5.47;;;;;;;12.20;44.53;99993.22;5089841;28;20228;-60
2022/04/13 07:48:46;;;;;;;8.07;6.00;;;;;;;12.31;44.79;99999.44;5088654;28;20206;-60
2022/04/13 07:51:13;;;;;;;7.03;5.43;;;;;;;12.36;44.03;99994.38;5089979;28;20202;-60
2022/04/13 07:53:40;;;;;;;6.63;5.20;;;;;;;12.31;43.91;99994.28;5101076;28;20198;-60
2022/04/13 07:56:07;;;;;;;8.67;5.93;;;;;;;12.49;43.84;99996.31;5094536;28;20289;-60
2022/04/13 07:58:36;;;;;;;6.90;5.77;;;;;;;12.52;43.10;100003.22;5109331;28;20209;-60
2022/04/13 08:01:03;;;;;;;5.23;4.73;;;;;;;12.66;42.03;99989.69;5096869;28;20285;-60
2022/04/13 08:03:30;;;;;;;7.20;5.17;;;;;;;12.77;41.62;99993.31;5089929;28;20186;-61
2022/04/13 08:05:57;;;;;;;7.10;5.53;;;;;;;12.88;41.91;99988.34;5089786;28;20290;-60
2022/04/13 08:08:23;;;;;;;6.43;5.80;;;;;;;13.04;42.03;99985.13;5089973;28;20281;-60
2022/04/13 08:10:50;;;;;;;6.63;5.50;;;;;;;13.12;40.99;99983.56;5088549;28;20978;-60
2022/04/13 08:13:17;;;;;;;6.23;5.30;;;;;;;13.22;40.95;99984.53;5088040;28;20214;-60
2022/04/13 08:15:46;;;;;;;7.10;5.87;;;;;;;13.28;40.40;99987.19;5088460;28;20282;-61
2022/04/13 08:18:14;;;;;;;7.43;5.93;;;;;;;13.39;40.48;99988.22;5088388;28;20226;-60
2022/04/13 08:20:41;;;;;;;14.53;6.07;;;;;;;13.44;39.68;99992.56;5087406;28;20190;-60
2022/04/13 08:23:08;;;;;;;6.37;5.67;;;;;;;13.49;39.80;99988.34;5087451;28;20202;-61
2022/04/13 08:25:35;;;;;;;7.93;6.25;;;;;;;13.59;39.80;99985.03;5087332;28;20443;-61
2022/04/13 08:28:01;;;;;;;6.40;5.73;;;;;;;13.38;38.73;99934.84;5088920;28;21064;-61
2022/04/13 08:30:29;;;;;;;8.70;6.07;;;;;;;13.78;38.10;99977.50;5088836;28;20298;-61
2022/04/13 08:32:57;;;;;;;7.57;5.43;;;;;;;13.82;38.20;99974.06;5088950;28;20186;-61
2022/04/13 08:35:24;;;;;;;6.60;5.73;;;;;;;13.85;38.05;99966.34;5089612;28;20222;-61
2022/04/13 08:37:51;;;;;;;8.27;6.57;;;;;;;13.98;38.29;99970.84;5089750;28;20280;-61
2022/04/13 08:40:19;;;;;;;5.87;5.30;;;;;;;14.02;37.46;99968.28;5089967;28;20289;-61
2022/04/13 08:42:52;;;;;;;8.13;5.97;;;;;;;13.96;38.21;99963.03;5089752;28;20195;-61
2022/04/13 08:45:24;;;;;;;8.63;6.10;;;;;;;14.18;38.58;99964.13;5089687;28;20223;-61
2022/04/13 08:47:56;;;;;;;8.63;6.67;;;;;;;14.28;38.52;99960.78;5089627;28;20254;-61
2022/04/13 08:50:27;;;;;;;6.87;5.87;;;;;;;14.24;38.60;99959.00;5091659;28;20248;-61
2022/04/13 08:52:58;;;;;;;7.20;6.27;;;;;;;14.08;38.62;99946.81;5094204;28;20201;-61
2022/04/13 08:55:26;;;;;;;6.87;5.80;;;;;;;13.85;38.44;99958.59;5094052;28;20653;-61
2022/04/13 08:58:03;;;;;;;6.50;5.77;;;;;;;13.91;38.76;99958.69;5094113;28;20285;-61
2022/04/13 09:00:34;;;;;;;6.57;5.10;;;;;;;14.08;38.66;99936.47;5094275;28;20187;-61
2022/04/13 09:03:24;;;;;;;12.90;6.87;;;;;;;14.10;38.25;99945.09;5094155;28;20212;-62
2022/04/13 09:06:02;;;;;;;8.10;5.97;;;;;;;14.16;38.16;99935.69;5093826;28;20226;-62
2022/04/13 09:08:36;;;;;;;8.40;6.60;;;;;;;14.16;37.83;99934.81;5093114;28;20436;-62
2022/04/13 09:11:04;;;;;;;7.93;6.27;;;;;;;14.36;37.59;99930.72;5094140;28;20215;-62
2022/04/13 09:13:33;;;;;;;7.57;5.53;;;;;;;14.34;37.22;99903.13;5093854;28;20235;-62
2022/04/13 09:16:03;;;;;;;6.50;5.87;;;;;;;14.46;37.48;99896.31;5093594;28;20537;-62
2022/04/13 09:18:30;;;;;;;7.93;5.70;;;;;;;14.60;37.87;99917.09;5093287;28;20193;-61
2022/04/13 09:20:59;;;;;;;7.50;5.80;;;;;;;14.72;37.47;99918.03;5093646;28;20282;-61
2022/04/13 09:23:26;;;;;;;9.60;6.85;;;;;;;14.79;37.42;99908.59;5091899;28;20452;-61
2022/04/13 09:25:55;;;;;;;10.03;6.47;;;;;;;15.02;36.58;99906.13;5077038;28;20773;-61
2022/04/13 09:28:22;;;;;;;7.67;5.60;;;;;;;15.17;36.53;99904.47;5072670;28;20278;-61
2022/04/13 09:30:49;;;;;;;7.37;5.83;;;;;;;15.05;36.35;99877.69;5072456;28;20282;-61
2022/04/13 09:33:16;;;;;;;8.57;5.53;;;;;;;15.31;36.83;99897.63;5074899;28;20286;-60
2022/04/13 09:35:43;;;;;;;8.10;5.70;;;;;;;15.32;35.72;99901.97;5106968;28;20207;-60
2022/04/13 09:38:11;;;;;;;9.53;5.93;;;;;;;15.28;36.05;99894.16;5103004;28;20214;-61
2022/04/13 09:40:39;;;;;;;9.10;6.17;;;;;;;15.12;36.34;99892.38;5103114;28;20199;-59
2022/04/13 09:43:08;;;;;;;8.17;5.70;;;;;;;15.07;36.03;99878.56;5098929;28;20268;-60
2022/04/13 09:45:37;;;;;;;6.63;5.43;;;;;;;15.13;36.02;99884.63;5116331;28;20307;-63
2022/04/13 09:48:09;;;;;;;7.00;6.00;;;;;;;15.12;35.88;99884.59;5117964;28;20195;-61
2022/04/13 09:50:37;;;;;;;9.23;6.07;;;;;;;15.16;35.83;99883.78;5112882;28;20278;-61
2022/04/13 09:53:06;;;;;;;11.57;6.27;;;;;;;15.31;35.80;99881.22;5113066;28;20882;-60
2022/04/13 09:55:38;;;;;;;7.00;6.30;;;;;;;15.51;35.71;99870.97;5112711;28;20203;-60
2022/04/13 09:58:07;;;;;;;8.80;6.00;;;;;;;15.72;34.32;99876.19;5100713;28;20198;-60
2022/04/13 10:00:35;;;;;;;9.20;5.80;;;;;;;15.92;33.87;99874.50;5094566;28;20914;-60
2022/04/13 10:03:11;;;;;;;8.00;5.60;;;;;;;16.18;33.45;99864.13;5111783;28;20196;-60
2022/04/13 10:05:38;;;;;;;8.93;5.43;;;;;;;16.25;32.82;99865.84;5112306;28;20200;-60
2022/04/13 10:08:08;;;;;;;15.77;5.40;;;;;;;16.22;32.82;99865.84;5112321;28;20186;-60
2022/04/13 10:10:35;;;;;;;6.87;5.43;;;;;;;16.30;32.59;99866.72;5096060;28;20201;-60
2022/04/13 10:13:03;;;;;;;5.20;4.33;;;;;;;16.39;32.10;99864.13;5091482;28;20227;-60
2022/04/13 10:15:30;;;;;;;7.50;5.22;;;;;;;16.23;32.33;99855.50;5090074;28;20914;-60
2022/04/13 10:17:59;;;;;;;5.17;4.67;;;;;;;16.37;31.66;99855.47;5091374;28;20278;-60
2022/04/13 10:20:41;;;;;;;8.40;5.10;;;;;;;16.52;31.51;99864.09;5091363;28;20191;-61
2022/04/13 10:23:08;;;;;;;6.63;4.13;;;;;;;16.69;30.90;99853.72;5091382;28;20192;-60
2022/04/13 10:25:35;;;;;;;3.87;3.57;;;;;;;16.88;30.04;99847.59;5091676;28;20213;-60
2022/04/13 10:28:04;;;;;;;5.00;4.60;;;;;;;17.01;29.98;99848.41;5087230;28;20194;-61
2022/04/13 10:30:33;;;;;;;6.47;4.70;;;;;;;17.15;30.53;99848.34;5089541;28;20210;-61
2022/04/13 10:33:02;;;;;;;6.43;5.03;;;;;;;17.25;31.00;99844.84;5093830;28;20274;-61
2022/04/13 10:35:30;;;;;;;5.97;5.37;;;;;;;17.38;30.74;99838.72;5091340;28;20550;-61
2022/04/13 10:37:57;;;;;;;6.27;5.10;;;;;;;17.32;30.04;99831.81;5091556;28;20198;-63
2022/04/13 10:40:25;;;;;;;6.03;5.43;;;;;;;17.36;30.86;99833.50;5090625;28;20197;-61
2022/04/13 10:42:54;;;;;;;9.00;4.77;;;;;;;17.47;30.13;99839.50;5090777;28;20179;-60
2022/04/13 10:45:23;;;;;;;5.97;4.33;;;;;;;17.42;29.61;99827.41;5090987;28;20222;-61
2022/04/13 10:47:57;;;;;;;6.13;4.53;;;;;;;17.40;29.99;99829.16;5090901;28;20568;-60
2022/04/13 10:50:34;;;;;;;7.33;4.20;;;;;;;17.42;30.04;99825.69;5090833;28;20217;-60
2022/04/13 10:53:11;;;;;;;5.27;3.43;;;;;;;16.86;29.88;99827.72;5090655;28;20248;-61
2022/04/13 10:55:38;;;;;;;4.00;3.60;;;;;;;16.72;30.09;99826.88;5090194;28;20198;-60
2022/04/13 10:58:14;;;;;;;5.73;4.23;;;;;;;16.78;30.29;99814.75;5089775;28;20290;-60
2022/04/13 11:00:46;;;;;;;7.67;4.73;;;;;;;16.86;30.87;99817.31;5086871;28;20735;-60
2022/04/13 11:03:16;;;;;;;6.97;4.37;;;;;;;16.88;30.24;99818.16;5089647;28;20187;-60
2022/04/13 11:05:43;;;;;;;5.40;4.40;;;;;;;16.74;30.03;99806.97;5089301;28;20194;-61
2022/04/13 11:08:22;;;;;;;5.20;4.17;;;;;;;16.99;30.36;99819.00;5090332;28;20195;-60
2022/04/13 11:10:50;;;;;;;6.80;4.47;;;;;;;16.91;29.78;99800.88;5088328;28;20525;-61
2022/04/13 11:13:17;;;;;;;9.20;4.40;;;;;;;16.93;30.54;99795.66;5089052;28;20455;-60
2022/04/13 11:15:47;;;;;;;5.87;4.50;;;;;;;17.13;30.32;99792.97;5090275;28;20289;-60
2022/04/13 11:18:17;;;;;;;8.63;5.60;;;;;;;17.37;30.49;99788.47;5090761;28;20201;-61
2022/04/13 11:21:08;;;;;;;5.43;4.20;;;;;;;17.64;29.81;99788.31;5090660;28;20569;-61
2022/04/13 11:23:49;;;;;;;5.03;4.47;;;;;;;17.78;29.26;99785.59;5075577;28;20201;-61
2022/04/13 11:26:16;;;;;;;6.43;5.43;;;;;;;17.69;30.02;99762.28;5090690;28;20671;-61
2022/04/13 11:28:43;;;;;;;6.10;4.90;;;;;;;17.95;29.43;99785.47;5090915;28;20194;-63
2022/04/13 11:31:13;;;;;;;6.47;5.30;;;;;;;17.86;29.62;99756.94;5091178;28;20198;-61
2022/04/13 11:33:51;;;;;;;6.57;4.40;;;;;;;18.03;28.99;99781.94;5090488;28;20193;-61
2022/04/13 11:36:19;;;;;;;7.70;5.37;;;;;;;17.81;29.43;99776.91;5090485;28;20187;-60